createdAt,value
2022-07-25T00:01:45.797Z,101234.34
2022-07-25T00:04:14.529Z,101234.34
2022-07-25T00:06:43.000Z,101229.22
2022-07-25T00:09:10.603Z,101218.63
2022-07-25T00:11:37.906Z,101222.28
2022-07-25T00:14:05.320Z,101220.84
2022-07-25T00:16:32.443Z,101212.53
2022-07-25T00:18:59.332Z,101215.34
2022-07-25T00:21:26.284Z,101204.84
2022-07-25T00:23:53.074Z,101205.59
2022-07-25T00:26:19.879Z,101200.28
2022-07-25T00:28:46.706Z,101197.25
2022-07-25T00:31:13.576Z,101198.56
2022-07-25T00:33:40.615Z,101192.50
2022-07-25T00:36:08.459Z,101197.31
2022-07-25T00:38:35.425Z,101191.91
2022-07-25T00:41:03.088Z,101195.97
2022-07-25T00:43:29.883Z,101193.53
2022-07-25T00:45:59.534Z,101181.19
2022-07-25T00:48:29.866Z,101180.22
2022-07-25T00:50:57.144Z,101189.50
2022-07-25T00:53:24.470Z,101181.38
2022-07-25T00:55:51.977Z,101181.47
2022-07-25T00:58:19.051Z,101172.91
2022-07-25T01:00:46.166Z,101163.13
2022-07-25T01:03:13.045Z,101171.16
2022-07-25T01:05:39.884Z,101171.47
2022-07-25T01:08:06.702Z,101171.56
2022-07-25T01:10:34.181Z,101160.75
2022-07-25T01:13:01.080Z,101161.94
2022-07-25T01:15:28.037Z,101165.72
2022-07-25T01:17:54.776Z,101165.72
2022-07-25T01:20:24.110Z,101161.81
2022-07-25T01:22:51.420Z,101161.16
2022-07-25T01:25:19.608Z,101165.63
2022-07-25T01:27:51.252Z,101163.78
2022-07-25T01:30:22.050Z,101157.59
2022-07-25T01:32:48.785Z,101158.63
2022-07-25T01:35:15.698Z,101152.47
2022-07-25T01:37:42.428Z,101160.38
2022-07-25T01:40:13.984Z,101154.22
2022-07-25T01:42:41.558Z,101151.50
2022-07-25T01:45:09.078Z,101145.91
2022-07-25T01:47:35.775Z,101138.09
2022-07-25T01:50:02.699Z,101133.75
2022-07-25T01:52:29.403Z,101137.31
2022-07-25T01:54:56.508Z,101139.56
2022-07-25T01:57:23.298Z,101133.94
2022-07-25T01:59:57.651Z,101133.84
2022-07-25T02:02:24.469Z,101137.53
2022-07-25T02:04:51.270Z,101135.69
2022-07-25T02:07:18.052Z,101132.00
2022-07-25T02:09:44.786Z,101130.28
2022-07-25T02:12:11.513Z,101127.78
2022-07-25T02:14:38.271Z,101122.69
2022-07-25T02:17:05.110Z,101119.88
2022-07-25T02:19:32.683Z,101117.94
2022-07-25T02:21:59.404Z,101113.47
2022-07-25T02:24:26.148Z,101113.59
2022-07-25T02:26:52.866Z,101110.00
2022-07-25T02:29:21.829Z,101105.69
2022-07-25T02:31:53.235Z,101109.25
2022-07-25T02:34:19.972Z,101104.81
2022-07-25T02:36:46.741Z,101100.38
2022-07-25T02:39:13.464Z,101095.94
2022-07-25T02:41:40.371Z,101092.25
2022-07-25T02:44:07.615Z,101086.00
2022-07-25T02:46:34.650Z,101088.59
2022-07-25T02:49:02.004Z,101088.03
2022-07-25T02:51:28.969Z,101090.19
2022-07-25T02:53:57.620Z,101083.69
2022-07-25T02:56:25.350Z,101077.53
2022-07-25T02:58:52.029Z,101077.63
2022-07-25T03:01:18.873Z,101078.59
2022-07-25T03:03:45.709Z,101084.97
2022-07-25T03:06:12.431Z,101076.75
2022-07-25T03:08:39.313Z,101071.63
2022-07-25T03:11:06.386Z,101069.91
2022-07-25T03:13:33.426Z,101068.06
2022-07-25T03:16:00.415Z,101060.19
2022-07-25T03:18:27.282Z,101060.19
2022-07-25T03:20:54.238Z,101052.16
2022-07-25T03:23:20.985Z,101056.59
2022-07-25T03:25:47.714Z,101054.97
2022-07-25T03:28:14.433Z,101054.78
2022-07-25T03:30:41.202Z,101059.41
2022-07-25T03:33:08.171Z,101053.13
2022-07-25T03:35:35.310Z,101057.59
2022-07-25T03:38:02.154Z,101050.63
2022-07-25T03:40:28.928Z,101039.81
2022-07-25T03:42:55.674Z,101043.28
2022-07-25T03:45:22.496Z,101038.97
2022-07-25T03:47:49.326Z,101035.28
2022-07-25T03:50:16.142Z,101034.09
2022-07-25T03:52:42.880Z,101030.97
2022-07-25T03:55:11.082Z,101035.09
2022-07-25T03:57:38.407Z,101029.69
2022-07-25T04:00:09.713Z,101037.13
2022-07-25T04:02:38.005Z,101031.50
2022-07-25T04:05:06.538Z,101034.97
2022-07-25T04:07:33.441Z,101028.69
2022-07-25T04:10:00.195Z,101028.03
2022-07-25T04:12:26.880Z,101023.81
2022-07-25T04:14:53.575Z,101022.84
2022-07-25T04:17:20.529Z,101027.19
2022-07-25T04:19:48.287Z,101023.63
2022-07-25T04:22:15.931Z,101026.22
2022-07-25T04:24:42.663Z,101023.53
2022-07-25T04:27:09.388Z,101009.25
2022-07-25T04:29:36.107Z,101020.91
2022-07-25T04:32:02.889Z,101010.88
2022-07-25T04:34:29.724Z,101012.56
2022-07-25T04:36:56.437Z,101003.50
2022-07-25T04:39:23.219Z,101002.44
2022-07-25T04:41:50.121Z,101008.91
2022-07-25T04:44:16.900Z,100990.84
2022-07-25T04:46:43.634Z,100989.75
2022-07-25T04:49:10.410Z,100976.25
2022-07-25T04:51:37.271Z,100976.06
2022-07-25T04:54:04.356Z,100967.97
2022-07-25T04:56:31.376Z,100963.88
2022-07-25T04:59:01.858Z,100954.69
2022-07-25T05:01:31.794Z,100955.34
2022-07-25T05:03:58.559Z,100953.97
2022-07-25T05:06:25.353Z,100946.94
2022-07-25T05:08:52.165Z,100953.03
2022-07-25T05:11:18.956Z,100954.00
2022-07-25T05:13:45.707Z,100944.53
2022-07-25T05:16:12.485Z,100946.25
2022-07-25T05:18:39.267Z,100944.78
2022-07-25T05:21:05.981Z,100944.72
2022-07-25T05:23:32.759Z,100939.00
2022-07-25T05:25:59.482Z,100934.75
2022-07-25T05:28:26.187Z,100934.56
2022-07-25T05:30:52.889Z,100929.41
2022-07-25T05:33:19.588Z,100925.16
2022-07-25T05:35:46.533Z,100927.50
2022-07-25T05:38:13.290Z,100929.38
2022-07-25T05:40:39.996Z,100928.13
2022-07-25T05:43:09.536Z,100926.66
2022-07-25T05:45:36.277Z,100924.31
2022-07-25T05:48:03.045Z,100914.44
2022-07-25T05:50:29.727Z,100917.50
2022-07-25T05:52:56.438Z,100912.31
2022-07-25T05:55:23.134Z,100907.31
2022-07-25T05:57:49.840Z,100905.34
2022-07-25T06:00:16.822Z,100913.50
2022-07-25T06:02:43.741Z,100905.75
2022-07-25T06:05:10.543Z,100905.66
2022-07-25T06:07:37.296Z,100899.31
2022-07-25T06:10:04.986Z,100906.75
2022-07-25T06:12:33.771Z,100905.06
2022-07-25T06:15:04.556Z,100889.06
2022-07-25T06:17:32.648Z,100887.25
2022-07-25T06:19:59.599Z,100890.03
2022-07-25T06:22:26.268Z,100878.03
2022-07-25T06:24:53.027Z,100877.47
2022-07-25T06:27:21.602Z,100880.78
2022-07-25T06:29:49.910Z,100880.63
2022-07-25T06:32:16.636Z,100870.72
2022-07-25T06:34:43.784Z,100873.81
2022-07-25T06:37:10.569Z,100865.59
2022-07-25T06:39:38.745Z,100854.75
2022-07-25T06:42:07.186Z,100855.97
2022-07-25T06:44:35.123Z,100856.16
2022-07-25T06:47:02.710Z,100856.22
2022-07-25T06:49:29.721Z,100856.91
2022-07-25T06:51:56.414Z,100854.34
2022-07-25T06:54:23.209Z,100845.31
2022-07-25T06:56:49.998Z,100841.09
2022-07-25T06:59:16.697Z,100841.41
2022-07-25T07:01:45.966Z,100842.28
2022-07-25T07:04:16.598Z,100832.25
2022-07-25T07:06:44.031Z,100830.38
2022-07-25T07:09:10.885Z,100821.78
2022-07-25T07:11:37.810Z,100814.41
2022-07-25T07:14:05.358Z,100810.66
2022-07-25T07:16:32.514Z,100807.59
2022-07-25T07:18:59.391Z,100813.63
2022-07-25T07:21:26.155Z,100808.94
2022-07-25T07:23:53.504Z,100805.28
2022-07-25T07:26:20.669Z,100805.25
2022-07-25T07:28:47.495Z,100793.38
2022-07-25T07:31:17.895Z,100787.19
2022-07-25T07:33:45.801Z,100790.69
2022-07-25T07:36:12.712Z,100794.34
2022-07-25T07:38:40.188Z,100788.78
2022-07-25T07:41:07.110Z,100790.75
2022-07-25T07:43:34.034Z,100785.69
2022-07-25T07:46:01.301Z,100787.06
2022-07-25T07:48:32.886Z,100780.16
2022-07-25T07:51:00.657Z,100785.28
2022-07-25T07:53:47.818Z,100779.22
2022-07-25T07:56:15.469Z,100783.31
2022-07-25T07:58:42.312Z,100783.50
2022-07-25T08:01:09.049Z,100770.41
2022-07-25T08:03:36.287Z,100773.59
2022-07-25T08:06:03.006Z,100768.25
2022-07-25T08:08:31.546Z,100770.41
2022-07-25T08:10:59.454Z,100763.72
2022-07-25T08:13:31.654Z,100757.69
2022-07-25T08:16:01.536Z,100752.50
2022-07-25T08:18:30.130Z,100760.78
2022-07-25T08:20:57.012Z,100753.75
2022-07-25T08:23:25.433Z,100762.75
2022-07-25T08:25:52.422Z,100758.44
2022-07-25T08:28:19.551Z,100753.81
2022-07-25T08:30:46.665Z,100746.31
2022-07-25T08:33:16.310Z,100747.22
2022-07-25T08:36:01.311Z,100747.63
2022-07-25T08:38:28.861Z,100737.00
2022-07-25T08:40:56.818Z,100735.91
2022-07-25T08:43:23.839Z,100733.88
2022-07-25T08:45:52.880Z,100726.00
2022-07-25T08:48:25.104Z,100732.31
2022-07-25T08:50:53.064Z,100725.53
2022-07-25T08:53:36.616Z,100730.38
2022-07-25T08:56:11.136Z,100726.59
2022-07-25T08:58:41.651Z,100725.72
2022-07-25T09:01:08.716Z,100718.69
2022-07-25T09:03:36.497Z,100710.59
2022-07-25T09:06:19.935Z,100713.03
2022-07-25T09:08:57.784Z,100709.41
2022-07-25T09:11:28.255Z,100712.38
2022-07-25T09:14:07.396Z,100695.56
2022-07-25T09:16:40.934Z,100695.94
2022-07-25T09:19:15.056Z,100694.22
2022-07-25T09:21:44.042Z,100692.22
2022-07-25T09:24:16.184Z,100680.03
2022-07-25T09:26:44.337Z,100677.63
2022-07-25T09:29:22.191Z,100677.06
2022-07-25T09:31:49.833Z,100682.16
2022-07-25T09:34:20.870Z,100672.34
2022-07-25T09:36:54.760Z,100664.13
2022-07-25T09:39:21.651Z,100655.09
2022-07-25T09:41:49.694Z,100656.81
2022-07-25T09:44:23.250Z,100655.13
2022-07-25T09:46:50.776Z,100653.50
2022-07-25T09:49:17.570Z,100641.19
2022-07-25T09:51:44.567Z,100649.66
2022-07-25T09:54:11.821Z,100631.59
2022-07-25T09:56:38.637Z,100637.91
2022-07-25T09:59:06.085Z,100625.13
2022-07-25T10:01:38.442Z,100628.34
2022-07-25T10:04:25.204Z,100618.56
2022-07-25T10:07:06.892Z,100615.41
2022-07-25T10:09:34.209Z,100606.94
2022-07-25T10:12:11.710Z,100603.88
2022-07-25T10:14:38.955Z,100604.31
2022-07-25T10:17:06.489Z,100593.78
2022-07-25T10:22:46.462Z,100613.78
2022-07-25T10:25:20.723Z,100596.56
2022-07-25T10:27:49.322Z,100581.47
2022-07-25T10:30:24.142Z,100579.50
2022-07-25T10:32:56.873Z,100571.78
2022-07-25T10:35:23.625Z,100571.47
2022-07-25T10:37:55.000Z,100568.78
2022-07-25T10:40:33.150Z,100551.19
2022-07-25T10:43:23.243Z,100556.72
2022-07-25T10:45:52.968Z,100542.00
2022-07-25T10:48:26.647Z,100538.16
2022-07-25T10:51:04.490Z,100544.22
2022-07-25T10:53:45.487Z,100533.53
2022-07-25T10:56:16.170Z,100530.94
2022-07-25T10:58:50.028Z,100514.94
2022-07-25T11:01:30.053Z,100521.44
2022-07-25T11:04:01.971Z,100518.88
2022-07-25T11:06:36.115Z,100513.09
2022-07-25T11:09:05.298Z,100512.16
2022-07-25T11:11:37.563Z,100508.59
2022-07-25T11:14:05.694Z,100511.75
2022-07-25T11:16:32.517Z,100511.63
2022-07-25T11:18:59.408Z,100514.13
2022-07-25T11:21:26.118Z,100506.19
2022-07-25T11:23:52.960Z,100492.66
2022-07-25T11:26:20.419Z,100493.34
2022-07-25T11:28:49.417Z,100485.03
2022-07-25T11:31:18.071Z,100479.75
2022-07-25T11:33:48.256Z,100493.19
2022-07-25T11:36:15.937Z,100479.34
2022-07-25T11:38:42.968Z,100474.63
2022-07-25T11:41:09.983Z,100479.63
2022-07-25T11:43:37.384Z,100473.56
2022-07-25T11:46:07.369Z,100476.53
2022-07-25T11:48:40.491Z,100467.78
2022-07-25T11:51:14.969Z,100469.13
2022-07-25T11:53:50.876Z,100463.28
2022-07-25T11:56:43.812Z,100446.88
2022-07-25T11:59:11.697Z,100435.13
2022-07-25T12:01:40.536Z,100444.72
2022-07-25T12:04:20.143Z,100435.78
2022-07-25T12:06:48.869Z,100439.91
2022-07-25T12:09:19.151Z,100435.63
2022-07-25T12:11:47.585Z,100422.06
2022-07-25T12:14:15.026Z,100413.53
2022-07-25T12:16:42.249Z,100418.44
2022-07-25T12:19:19.983Z,100415.69
2022-07-25T12:21:47.034Z,100415.53
2022-07-25T12:24:14.153Z,100403.97
2022-07-25T12:26:40.925Z,100398.38
2022-07-25T12:29:07.921Z,100395.72
2022-07-25T12:31:35.071Z,100396.13
2022-07-25T12:34:01.899Z,100391.00
2022-07-25T12:36:28.924Z,100392.28
2022-07-25T12:38:55.750Z,100384.41
2022-07-25T12:41:23.705Z,100392.56
2022-07-25T12:43:53.502Z,100377.53
2022-07-25T12:46:20.389Z,100390.72
2022-07-25T12:48:47.540Z,100384.44
2022-07-25T12:51:14.442Z,100367.88
2022-07-25T12:53:42.606Z,100369.91
2022-07-25T12:56:09.981Z,100368.44
2022-07-25T12:58:37.601Z,100367.72
2022-07-25T13:01:06.331Z,100371.72
2022-07-25T13:03:34.820Z,100368.88
2022-07-25T13:06:03.124Z,100369.25
2022-07-25T13:08:32.726Z,100357.50
2022-07-25T13:11:03.359Z,100356.41
2022-07-25T13:13:32.484Z,100346.84
2022-07-25T13:16:01.230Z,100343.69
2022-07-25T13:18:32.839Z,100342.72
2022-07-25T13:21:00.937Z,100335.50
2022-07-25T13:23:28.139Z,100342.81
2022-07-25T13:25:55.082Z,100334.47
2022-07-25T13:28:21.917Z,100339.34
2022-07-25T13:30:48.847Z,100335.44
2022-07-25T13:33:17.039Z,100329.72
2022-07-25T13:35:43.806Z,100321.31
2022-07-25T13:38:11.549Z,100318.00
2022-07-25T13:40:41.202Z,100317.78
2022-07-25T13:43:12.430Z,100324.06
2022-07-25T13:45:42.999Z,100315.94
2022-07-25T13:48:29.181Z,100311.56
2022-07-25T13:50:57.518Z,100301.16
2022-07-25T13:53:29.450Z,100291.50
2022-07-25T13:55:58.407Z,100290.78
2022-07-25T13:58:25.838Z,100290.34
2022-07-25T14:00:59.612Z,100287.78
2022-07-25T14:03:28.226Z,100282.47
2022-07-25T14:05:55.110Z,100284.00
2022-07-25T14:08:25.537Z,100292.34
2022-07-25T14:10:53.149Z,100282.03
2022-07-25T14:13:19.949Z,100272.72
2022-07-25T14:15:46.769Z,100284.19
2022-07-25T14:18:13.486Z,100270.84
2022-07-25T14:20:40.316Z,100267.75
2022-07-25T14:23:07.089Z,100263.91
2022-07-25T14:25:34.046Z,100269.63
2022-07-25T14:28:01.822Z,100267.84
2022-07-25T14:30:28.736Z,100264.06
2022-07-25T14:32:55.947Z,100253.22
2022-07-25T14:35:28.784Z,100257.19
2022-07-25T14:37:59.079Z,100262.84
2022-07-25T14:40:25.891Z,100252.28
2022-07-25T14:42:52.623Z,100246.53
2022-07-25T14:45:19.619Z,100237.19
2022-07-25T14:47:46.553Z,100240.41
2022-07-25T14:50:13.457Z,100239.84
2022-07-25T14:52:40.154Z,100233.81
2022-07-25T14:55:07.880Z,100246.59
2022-07-25T14:57:34.766Z,100234.16
2022-07-25T15:00:02.311Z,100234.66
2022-07-25T15:02:29.101Z,100214.22
2022-07-25T15:04:56.250Z,100213.53
2022-07-25T15:07:23.197Z,100210.38
2022-07-25T15:09:50.105Z,100202.53
2022-07-25T15:12:17.379Z,100205.28
2022-07-25T15:14:44.468Z,100202.06
2022-07-25T15:17:12.223Z,100204.91
2022-07-25T15:19:39.169Z,100189.38
2022-07-25T15:22:06.117Z,100186.94
2022-07-25T15:24:50.125Z,100188.66
2022-07-25T15:27:20.018Z,100177.75
2022-07-25T15:29:47.114Z,100172.69
2022-07-25T15:32:14.059Z,100171.16
2022-07-25T15:34:41.058Z,100168.59
2022-07-25T15:37:09.198Z,100162.03
2022-07-25T15:39:36.055Z,100160.72
2022-07-25T15:42:03.066Z,100153.47
2022-07-25T15:44:32.753Z,100146.56
2022-07-25T15:46:59.812Z,100146.13
2022-07-25T15:49:26.931Z,100141.56
2022-07-25T15:51:53.879Z,100132.25
2022-07-25T15:54:22.925Z,100138.38
2022-07-25T15:56:52.334Z,100124.16
2022-07-25T15:59:19.058Z,100112.81
2022-07-25T16:01:46.079Z,100120.19
2022-07-25T16:04:13.513Z,100113.16
2022-07-25T16:06:41.598Z,100103.72
2022-07-25T16:09:12.394Z,100106.19
2022-07-25T16:11:39.386Z,100103.94
2022-07-25T16:14:06.477Z,100093.53
2022-07-25T16:16:33.598Z,100092.16
2022-07-25T16:19:00.709Z,100089.84
2022-07-25T16:21:27.652Z,100091.16
2022-07-25T16:23:54.735Z,100095.00
2022-07-25T16:26:22.834Z,100095.66
2022-07-25T16:28:54.062Z,100091.97
2022-07-25T16:31:24.587Z,100085.06
2022-07-25T16:33:51.657Z,100089.38
2022-07-25T16:36:20.714Z,100086.47
2022-07-25T16:38:49.339Z,100095.47
2022-07-25T16:41:20.915Z,100134.63
2022-07-25T16:43:49.051Z,100177.50
2022-07-25T16:46:15.882Z,100177.34
2022-07-25T16:48:42.692Z,100160.84
2022-07-25T16:51:09.654Z,100181.03
2022-07-25T16:53:36.746Z,100169.13
2022-07-25T16:56:04.383Z,100176.78
2022-07-25T16:58:31.311Z,100173.59
2022-07-25T17:00:59.425Z,100173.16
2022-07-25T17:03:26.535Z,100171.25
2022-07-25T17:05:54.761Z,100170.41
2022-07-25T17:08:21.562Z,100175.31
2022-07-25T17:10:48.557Z,100199.06
2022-07-25T17:13:15.394Z,100215.38
2022-07-25T17:15:43.770Z,100221.94
2022-07-25T17:18:10.577Z,100244.78
2022-07-25T17:20:37.558Z,100239.38
2022-07-25T17:23:04.532Z,100234.00
2022-07-25T17:25:32.013Z,100225.56
2022-07-25T17:27:59.702Z,100215.31
2022-07-25T17:30:27.197Z,100234.44
2022-07-25T17:32:54.340Z,100245.94
2022-07-25T17:35:21.884Z,100250.31
2022-07-25T17:37:49.236Z,100257.31
2022-07-25T17:40:16.559Z,100263.94
2022-07-25T17:42:45.572Z,100281.84
2022-07-25T17:45:12.707Z,100287.50
2022-07-25T17:47:40.058Z,100289.25
2022-07-25T17:50:07.158Z,100289.03
2022-07-25T17:52:33.883Z,100308.91
2022-07-25T17:55:01.052Z,100287.75
2022-07-25T17:57:28.432Z,100273.97
2022-07-25T17:59:55.681Z,100264.16
2022-07-25T18:02:22.578Z,100265.63
2022-07-25T18:04:49.527Z,100300.94
2022-07-25T18:07:16.699Z,100307.94
2022-07-25T18:09:43.493Z,100301.41
2022-07-25T18:12:11.024Z,100274.94
2022-07-25T18:14:38.378Z,100283.66
2022-07-25T18:17:06.384Z,100282.66
2022-07-25T18:19:33.838Z,100284.81
2022-07-25T18:22:00.742Z,100292.38
2022-07-25T18:24:29.531Z,100271.22
2022-07-25T18:26:58.844Z,100278.91
2022-07-25T18:29:26.027Z,100277.34
2022-07-25T18:31:53.875Z,100282.97
2022-07-25T18:34:20.800Z,100281.59
2022-07-25T18:36:48.259Z,100287.56
2022-07-25T18:39:15.143Z,100291.22
2022-07-25T18:41:41.925Z,100297.75
2022-07-25T18:44:09.330Z,100294.88
2022-07-25T18:46:36.467Z,100286.81
2022-07-25T18:49:03.454Z,100275.25
2022-07-25T18:51:30.285Z,100269.69
2022-07-25T18:53:57.169Z,100265.94
2022-07-25T18:56:24.092Z,100263.53
2022-07-25T18:58:50.918Z,100265.75
2022-07-25T19:01:17.760Z,100258.13
2022-07-25T19:03:44.581Z,100264.06
2022-07-25T19:06:11.678Z,100271.44
2022-07-25T19:08:39.793Z,100263.34
2022-07-25T19:11:06.876Z,100263.53
2022-07-25T19:13:51.110Z,100270.03
2022-07-25T19:16:18.582Z,100270.34
2022-07-25T19:18:45.432Z,100274.31
2022-07-25T19:21:12.229Z,100275.03
2022-07-25T19:23:39.240Z,100269.06
2022-07-25T19:26:06.399Z,100289.25
2022-07-25T19:28:33.218Z,100290.97
2022-07-25T19:31:00.028Z,100286.50
2022-07-25T19:33:34.999Z,100283.25
2022-07-25T19:36:04.397Z,100285.31
2022-07-25T19:38:31.558Z,100288.94
2022-07-25T19:40:59.051Z,100299.88
2022-07-25T19:43:25.940Z,100301.63
2022-07-25T19:45:52.757Z,100314.09
2022-07-25T19:48:23.894Z,100391.97
2022-07-25T19:50:51.747Z,100359.81
2022-07-25T19:53:19.171Z,100373.81
2022-07-25T19:55:46.006Z,100376.22
2022-07-25T19:58:13.060Z,100379.97
2022-07-25T20:00:40.446Z,100381.34
2022-07-25T20:03:07.436Z,100379.94
2022-07-25T20:05:34.875Z,100378.38
2022-07-25T20:08:01.821Z,100376.53
2022-07-25T20:10:28.854Z,100366.22
2022-07-25T20:12:59.540Z,100375.31
2022-07-25T20:15:28.487Z,100380.22
2022-07-25T20:17:56.841Z,100378.34
2022-07-25T20:20:24.586Z,100373.94
2022-07-25T20:22:51.661Z,100394.25
2022-07-25T20:25:18.681Z,100419.88
2022-07-25T20:27:45.522Z,100413.88
2022-07-25T20:30:13.491Z,100417.34
2022-07-25T20:32:40.335Z,100435.47
2022-07-25T20:35:07.636Z,100435.25
2022-07-25T20:37:35.575Z,100437.25
2022-07-25T20:40:02.474Z,100444.47
2022-07-25T20:42:29.275Z,100456.59
2022-07-25T20:44:56.825Z,100460.47
2022-07-25T20:47:23.873Z,100448.56
2022-07-25T20:49:50.862Z,100471.44
2022-07-25T20:52:17.815Z,100484.69
2022-07-25T20:54:44.599Z,100491.50
2022-07-25T20:57:11.891Z,100489.56
2022-07-25T20:59:38.601Z,100491.50
2022-07-25T21:02:05.363Z,100492.44
2022-07-25T21:04:32.117Z,100492.50
2022-07-25T21:06:58.907Z,100505.09
2022-07-25T21:09:28.467Z,100502.56
2022-07-25T21:11:59.138Z,100513.03
2022-07-25T21:14:27.098Z,100510.69
2022-07-25T21:16:54.285Z,100508.38
2022-07-25T21:19:21.129Z,100511.63
2022-07-25T21:21:48.695Z,100524.91
2022-07-25T21:24:15.535Z,100544.84
2022-07-25T21:26:42.486Z,100557.66
2022-07-25T21:29:09.785Z,100574.53
2022-07-25T21:31:37.614Z,100590.19
2022-07-25T21:34:04.553Z,100611.06
2022-07-25T21:36:31.264Z,100611.06
2022-07-25T21:38:58.262Z,100600.00
2022-07-25T21:41:25.054Z,100590.00
2022-07-25T21:43:51.784Z,100582.59
2022-07-25T21:46:18.598Z,100575.44
2022-07-25T21:49:04.171Z,100576.63
2022-07-25T21:51:40.631Z,100580.56
2022-07-25T21:54:08.186Z,100578.19
2022-07-25T21:56:35.062Z,100578.69
2022-07-25T21:59:01.941Z,100577.00
2022-07-25T22:01:28.887Z,100585.25
2022-07-25T22:03:55.990Z,100573.22
2022-07-25T22:06:22.982Z,100564.94
2022-07-25T22:08:52.163Z,100563.94
2022-07-25T22:11:38.667Z,100568.28
2022-07-25T22:14:05.854Z,100559.25
2022-07-25T22:16:32.731Z,100562.41
2022-07-25T22:18:59.891Z,100575.19
2022-07-25T22:21:26.760Z,100586.69
2022-07-25T22:23:53.499Z,100595.44
2022-07-25T22:26:20.482Z,100592.16
2022-07-25T22:28:47.875Z,100600.06
2022-07-25T22:31:15.237Z,100591.31
2022-07-25T22:33:42.251Z,100583.59
2022-07-25T22:36:09.124Z,100572.97
2022-07-25T22:38:36.780Z,100580.84
2022-07-25T22:41:03.536Z,100580.72
2022-07-25T22:43:58.271Z,100570.94
2022-07-25T22:46:17.135Z,100590.59
2022-07-25T22:48:44.068Z,100596.88
2022-07-25T22:51:11.498Z,100588.72
2022-07-25T22:53:38.225Z,100590.28
2022-07-25T22:56:05.237Z,100596.00
2022-07-25T22:58:32.005Z,100603.31
2022-07-25T23:00:58.850Z,100603.75
2022-07-25T23:03:26.750Z,100615.34
2022-07-25T23:05:59.899Z,100613.63
2022-07-25T23:08:26.666Z,100623.78
2022-07-25T23:10:53.506Z,100628.25
2022-07-25T23:13:20.827Z,100623.38
2022-07-25T23:15:50.418Z,100609.19
2022-07-25T23:18:18.770Z,100619.34
2022-07-25T23:20:45.501Z,100629.22
2022-07-25T23:23:12.474Z,100632.09
2022-07-25T23:25:39.279Z,100638.50
2022-07-25T23:28:06.070Z,100632.63
2022-07-25T23:30:36.702Z,100635.78
2022-07-25T23:33:06.961Z,100632.94
2022-07-25T23:35:33.820Z,100637.06
2022-07-25T23:38:02.684Z,100679.03
2022-07-25T23:40:29.624Z,100689.03
2022-07-25T23:42:56.477Z,100660.69
2022-07-25T23:45:26.346Z,100666.69
2022-07-25T23:47:55.516Z,100683.56
2022-07-25T23:50:22.986Z,100696.88
2022-07-25T23:52:49.793Z,100705.34
2022-07-25T23:55:16.827Z,100669.38
2022-07-25T23:57:43.682Z,100644.41
